Betancuria — EAMH — position and weather

sailwx.info

Track history (hours):
 
Tides and Currents Weather Stations Pressure Air Temp Water Temp Dewpoint Dewpoint Depression Visibility Wind Speed Wind Dir Waves Ship Positions

Betancuria

Last reported at 2017-Aug-20 01:28 UTC. Time now 2017-Aug-20 01:54 UTC.
Position N 41°14' W 010°06'.

Length 141 m; draft 4.7 m.

Type: Ship. MMSI: 224471000.

Date/timePositionNaut miles runAvg speedWind from/ knotsBaromVisibWave heightAir tempDewpointWater temp
2017-Aug-20 01:28N 41°14' W 010°06'3510.0
2017-Aug-19 22:01N 41°49' W 010°06'011.2
2017-Aug-19 21:59N 41°49' W 010°06'1010.7
2017-Aug-19 21:02N 41°59' W 010°06'710.2
2017-Aug-19 20:23N 42°06' W 010°06'1010.6
2017-Aug-19 19:27N 42°16' W 010°06'377 9.7
2017-Aug-18 04:38N 48°00' W 006°30'162 8.7
2017-Aug-17 10:00N 49°47' W 003°26'8 9.3
2017-Aug-17 09:10N 49°51' W 003°15'2 9.5
2017-Aug-17 08:56N 49°52' W 003°12'9 9.6
2017-Aug-17 07:58N 49°57' W 002°60'4 9.5
2017-Aug-17 07:30N 49°59' W 002°54'5 9.3
2017-Aug-17 07:00N 50°00' W 002°47'5 8.7
2017-Aug-17 06:28N 50°02' W 002°40'28 6.5
2017-Aug-17 02:06N 50°10' W 001°58'1 6.4
2017-Aug-17 01:56N 50°10' W 001°56'3 6.4
2017-Aug-17 01:30N 50°11' W 001°52'4 7.1
2017-Aug-17 01:00N 50°12' W 001°47'4 7.8
2017-Aug-17 00:30N 50°13' W 001°41'4 8.6
2017-Aug-17 00:00N 50°14' W 001°34'5 9.3
2017-Aug-16 23:30N 50°16' W 001°28'5 9.7
2017-Aug-16 22:59N 50°17' W 001°20'1511.2
2017-Aug-16 21:38N 50°21' W 000°57'212.1
2017-Aug-16 21:28N 50°22' W 000°54'612.1
2017-Aug-16 20:58N 50°23' W 000°45'611.7
2017-Aug-16 20:30N 50°25' W 000°37'611.4
2017-Aug-16 20:00N 50°27' W 000°28'611.1
2017-Aug-16 19:30N 50°28' W 000°20'510.7
2017-Aug-16 19:00N 50°30' W 000°12'610.3
2017-Aug-16 18:22N 50°32' W 000°02'4 9.9
2017-Aug-16 17:56N 50°33' E 000°04'4 9.5
2017-Aug-16 17:30N 50°34' E 000°11'5 9.2
2017-Aug-16 17:00N 50°35' E 000°18'4 8.8
2017-Aug-16 16:30N 50°37' E 000°24'4 8.5
2017-Aug-16 16:00N 50°38' E 000°30'4 8.4
2017-Aug-16 15:30N 50°40' E 000°37'4 8.6
2017-Aug-16 15:00N 50°42' E 000°42'4 8.8
2017-Aug-16 14:30N 50°45' E 000°48'5 9.3
2017-Aug-16 13:59N 50°48' E 000°54'1310.3
2017-Aug-16 12:41N 50°56' E 001°11'210.8
2017-Aug-16 12:28N 50°57' E 001°13'611.0
2017-Aug-16 11:58N 51°01' E 001°20'711.0
2017-Aug-16 11:19N 51°05' E 001°29'310.5
2017-Aug-16 11:00N 51°08' E 001°33'5 9.6
2017-Aug-16 10:30N 51°12' E 001°36'5 9.3
2017-Aug-16 10:00N 51°16' E 001°37'5 9.1
2017-Aug-16 09:30N 51°21' E 001°35'510.1
2017-Aug-16 09:01N 51°24' E 001°30'5 9.7
2017-Aug-16 08:29N 51°28' E 001°24'511.2
2017-Aug-16 08:00N 51°29' E 001°15'610.9
2017-Aug-16 07:30N 51°30' E 001°06'5 9.7
2017-Aug-16 07:00N 51°29' E 000°59'3 0.1
2017-Aug-14 18:47N 51°30' E 000°53'3 9.4
2017-Aug-14 18:30N 51°29' E 000°58'5 9.9
2017-Aug-14 18:00N 51°30' E 001°05'510.4
2017-Aug-14 17:30N 51°29' E 001°14'611.6
2017-Aug-14 17:00N 51°28' E 001°23'5 9.7
2017-Aug-14 16:30N 51°27' E 001°30'4 7.0
2017-Aug-14 15:58N 51°30' E 001°30'0 0.0
2017-Aug-14 15:28N 51°30' E 001°30'0 0.0
2017-Aug-14 14:58N 51°30' E 001°30'0 0.1
2017-Aug-14 14:28N 51°30' E 001°30'0 0.0
2017-Aug-14 13:55N 51°30' E 001°30'0 0.0
2017-Aug-14 13:28N 51°30' E 001°30'0 0.0
2017-Aug-14 12:58N 51°30' E 001°30'0 0.0
2017-Aug-14 12:28N 51°30' E 001°30'0 0.0
2017-Aug-14 11:58N 51°30' E 001°30'0 0.0
2017-Aug-14 11:28N 51°30' E 001°30'0 0.0
2017-Aug-14 10:58N 51°30' E 001°30'0 0.0
2017-Aug-14 10:28N 51°30' E 001°30'0 0.1
2017-Aug-14 09:58N 51°30' E 001°30'0 0.9
2017-Aug-14 09:31N 51°30' E 001°31'5 9.8
2017-Aug-14 09:00N 51°25' E 001°31'5 9.5
2017-Aug-14 08:30N 51°21' E 001°35'510.2
2017-Aug-14 08:00N 51°16' E 001°37'611.1
2017-Aug-14 07:31N 51°11' E 001°36'5 9.9
2017-Aug-14 07:00N 51°07' E 001°40'612.8
2017-Aug-14 06:30N 51°02' E 001°34'713.5
2017-Aug-14 06:00N 50°57' E 001°27'713.4
2017-Aug-14 05:30N 50°50' E 001°23'1812.7
2017-Aug-14 04:05N 50°36' E 001°07'3512.7
2017-Aug-14 01:21N 50°24' E 000°16'514.0
2017-Aug-14 01:01N 50°23' E 000°08'714.0
2017-Aug-14 00:30N 50°21' W 000°02'714.0
2017-Aug-14 00:00N 50°19' W 000°13'714.2
2017-Aug-13 23:30N 50°17' W 000°24'714.2
2017-Aug-13 23:00N 50°15' W 000°34'713.8
2017-Aug-13 22:30N 50°13' W 000°45'713.5
2017-Aug-13 22:00N 50°11' W 000°55'613.0
2017-Aug-13 21:30N 50°09' W 001°04'712.3
2017-Aug-13 20:57N 50°08' W 001°15'511.4
2017-Aug-13 20:30N 50°06' W 001°23'510.9
2017-Aug-13 20:00N 50°05' W 001°31'510.2
2017-Aug-13 19:30N 50°03' W 001°38'5 9.5
2017-Aug-13 19:00N 50°02' W 001°45'5 9.0
2017-Aug-13 18:30N 50°01' W 001°52'4 8.5
2017-Aug-13 18:00N 49°59' W 001°58'25 9.0
2017-Aug-13 15:14N 49°52' W 002°36'310.8
2017-Aug-13 14:57N 49°51' W 002°40'511.1
2017-Aug-13 14:30N 49°50' W 002°48'611.3
2017-Aug-13 13:57N 49°50' W 002°58'611.5
2017-Aug-13 13:28N 49°50' W 003°06'511.7
2017-Aug-13 13:00N 49°50' W 003°14'612.0
2017-Aug-13 12:30N 49°50' W 003°24'612.3
2017-Aug-13 12:00N 49°51' W 003°33'612.5
2017-Aug-13 11:31N 49°51' W 003°43'612.5
2017-Aug-13 11:00N 49°51' W 003°53'612.6
2017-Aug-13 10:30N 49°51' W 004°02'612.6
2017-Aug-13 10:00N 49°52' W 004°12'612.6
2017-Aug-13 09:30N 49°52' W 004°22'912.8
2017-Aug-13 08:49N 49°52' W 004°35'612.7
2017-Aug-13 08:21N 49°53' W 004°45'412.7
2017-Aug-13 08:00N 49°53' W 004°52'712.6
2017-Aug-13 07:28N 49°53' W 005°02'712.4
2017-Aug-13 06:54N 49°53' W 005°13'47 8.5
2017-Aug-13 01:26N 50°26' W 006°05'612.3
2017-Aug-13 00:58N 50°31' W 006°08'612.2
2017-Aug-13 00:30N 50°37' W 006°10'612.1
2017-Aug-13 00:00N 50°42' W 006°14'612.0
2017-Aug-12 23:29N 50°48' W 006°17'812.0
2017-Aug-12 22:50N 50°56' W 006°21'411.8
2017-Aug-12 22:30N 50°60' W 006°22'611.7
2017-Aug-12 22:01N 51°05' W 006°25'611.6
2017-Aug-12 21:30N 51°11' W 006°29'611.1
2017-Aug-12 21:00N 51°16' W 006°30'611.7
2017-Aug-12 20:30N 51°22' W 006°33'911.6
2017-Aug-12 19:45N 51°30' W 006°37'411.7
2017-Aug-12 19:23N 51°34' W 006°40'411.6
2017-Aug-12 19:00N 51°38' W 006°42'611.8
2017-Aug-12 18:30N 51°44' W 006°46'611.8
2017-Aug-12 18:00N 51°49' W 006°49'611.7
2017-Aug-12 17:30N 51°55' W 006°52'611.6
2017-Aug-12 17:00N 52°00' W 006°55'611.3
2017-Aug-12 16:30N 52°06' W 006°58'5 9.2
2017-Aug-12 16:00N 52°10' W 006°57'5 9.0
2017-Aug-12 15:29N 52°15' W 006°59'2 4.4
2017-Aug-12 14:58N 52°16' W 007°02'0 0.0
2017-Aug-12 14:25N 52°16' W 007°02'0 0.0
2017-Aug-12 13:52N 52°16' W 007°02'0 0.0
2017-Aug-12 13:22N 52°16' W 007°02'0 0.0
2017-Aug-12 12:58N 52°16' W 007°02'0 0.0
2017-Aug-12 12:28N 52°16' W 007°02'0 0.0
2017-Aug-12 11:58N 52°16' W 007°02'0 0.0
2017-Aug-12 11:28N 52°16' W 007°02'0 0.0
2017-Aug-12 10:55N 52°16' W 007°02'0 0.0
2017-Aug-12 10:28N 52°16' W 007°02'0 0.0
2017-Aug-12 09:55N 52°16' W 007°02'0 0.0
2017-Aug-12 09:28N 52°16' W 007°02'0 0.0
2017-Aug-12 08:55N 52°16' W 007°02'0 0.0
2017-Aug-12 08:28N 52°16' W 007°02'0 0.0
2017-Aug-12 07:58N 52°16' W 007°02'0 0.0
2017-Aug-12 07:28N 52°16' W 007°02'0 0.0
2017-Aug-12 06:55N 52°16' W 007°02'0 0.0
2017-Aug-12 06:28N 52°16' W 007°02'0 0.0
2017-Aug-12 05:58N 52°16' W 007°02'0 0.0
2017-Aug-12 05:22N 52°16' W 007°02'0 0.0
2017-Aug-12 04:58N 52°16' W 007°02'0 0.0
2017-Aug-12 04:28N 52°16' W 007°02'0 0.0
2017-Aug-12 03:55N 52°16' W 007°02'0 0.0
2017-Aug-12 03:28N 52°16' W 007°02'0 0.0
2017-Aug-12 02:58N 52°16' W 007°02'0 0.0
2017-Aug-12 02:25N 52°16' W 007°02'0 0.0
2017-Aug-12 01:58N 52°16' W 007°02'0 0.0
2017-Aug-12 01:25N 52°16' W 007°02'0 0.0
2017-Aug-12 00:58N 52°16' W 007°02'0 0.0
2017-Aug-12 00:28N 52°16' W 007°02'0 0.0
2017-Aug-11 23:58N 52°16' W 007°02'0 0.0
2017-Aug-11 23:25N 52°16' W 007°02'0 0.0
2017-Aug-11 22:58N 52°16' W 007°02'0 0.0
2017-Aug-11 22:25N 52°16' W 007°02'0 0.0
2017-Aug-11 21:58N 52°16' W 007°02'0 0.0
2017-Aug-11 21:28N 52°16' W 007°02'0 0.0
2017-Aug-11 20:52N 52°16' W 007°02'0 0.0
2017-Aug-11 20:28N 52°16' W 007°02'0 0.0
2017-Aug-11 19:58N 52°16' W 007°02'0 0.0
2017-Aug-11 19:28N 52°16' W 007°02'0 0.0
2017-Aug-11 18:58N 52°16' W 007°02'0 0.0
2017-Aug-11 18:28N 52°16' W 007°02'0 0.0
2017-Aug-11 17:55N 52°16' W 007°02'0 0.0
2017-Aug-11 17:25N 52°16' W 007°02'0 0.0
2017-Aug-11 16:58N 52°16' W 007°02'0 0.0
2017-Aug-11 16:25N 52°16' W 007°02'0 0.0
2017-Aug-11 15:52N 52°16' W 007°02'0 0.0
2017-Aug-11 15:28N 52°16' W 007°02'0 0.0
2017-Aug-11 14:58N 52°16' W 007°02'0 0.0
2017-Aug-11 13:58N 52°16' W 007°02'0 0.0
2017-Aug-11 13:28N 52°16' W 007°02'0 0.0
2017-Aug-11 12:55N 52°16' W 007°02'0 0.0
2017-Aug-11 12:28N 52°16' W 007°02'0 0.0
2017-Aug-11 11:58N 52°16' W 007°02'0 0.0
2017-Aug-11 11:25N 52°16' W 007°02'0 0.0
2017-Aug-11 10:58N 52°16' W 007°02'0 0.0
2017-Aug-11 10:25N 52°16' W 007°02'0 0.0
2017-Aug-11 09:58N 52°16' W 007°02'0 0.0
2017-Aug-11 09:28N 52°16' W 007°02'0 0.0
2017-Aug-11 08:58N 52°16' W 007°02'0 0.0
2017-Aug-11 08:28N 52°16' W 007°02'0 0.0
2017-Aug-11 07:55N 52°16' W 007°02'0 0.0
2017-Aug-11 07:25N 52°16' W 007°02'0 0.0
2017-Aug-11 06:58N 52°16' W 007°02'0 0.0
2017-Aug-11 06:28N 52°16' W 007°02'0 0.0
2017-Aug-11 05:58N 52°16' W 007°02'0 0.0
2017-Aug-11 05:28N 52°16' W 007°02'0 0.0
2017-Aug-11 04:58N 52°16' W 007°02'0 0.0
2017-Aug-11 04:25N 52°16' W 007°02'0 0.0
2017-Aug-11 03:55N 52°16' W 007°02'0 0.0
2017-Aug-11 03:28N 52°16' W 007°02'0 0.0
2017-Aug-11 02:52N 52°16' W 007°02'0 0.0
2017-Aug-11 02:28N 52°16' W 007°02'0 0.0
2017-Aug-11 01:58N 52°16' W 007°02'0 0.0
2017-Aug-11 01:28N 52°16' W 007°02'0 0.0
2017-Aug-11 00:55N 52°16' W 007°02'0 0.0
2017-Aug-11 00:25N 52°16' W 007°02'0 0.0
2017-Aug-10 23:52N 52°16' W 007°02'0 0.0
2017-Aug-10 23:28N 52°16' W 007°02'0 0.0
2017-Aug-10 22:55N 52°16' W 007°02'0 0.0
2017-Aug-10 22:28N 52°16' W 007°02'0 0.0
2017-Aug-10 21:58N 52°16' W 007°02'0 0.0
2017-Aug-10 21:25N 52°16' W 007°02'0 0.0
2017-Aug-10 20:49N 52°16' W 007°02'0 0.0
2017-Aug-10 20:25N 52°16' W 007°02'0 0.0
2017-Aug-10 19:58N 52°16' W 007°02'0 0.4
2017-Aug-10 19:30N 52°16' W 007°02'1 2.7
2017-Aug-10 19:00N 52°16' W 006°60'3 6.3
2017-Aug-10 18:30N 52°13' W 006°56'4 8.5
2017-Aug-10 18:00N 52°09' W 006°58'0 0.2
2017-Aug-10 17:19N 52°09' W 006°58'0 0.0
2017-Aug-10 16:58N 52°09' W 006°58'0 0.0
2017-Aug-10 16:28N 52°09' W 006°58'0 0.0
2017-Aug-10 15:55N 52°09' W 006°58'0 0.0
2017-Aug-10 15:28N 52°09' W 006°58'0 0.0
2017-Aug-10 14:58N 52°09' W 006°58'0 0.1
2017-Aug-10 14:28N 52°09' W 006°58'0 0.1
2017-Aug-10 13:58N 52°09' W 006°58'0 0.1
2017-Aug-10 13:16N 52°09' W 006°59'0 0.0
2017-Aug-10 12:58N 52°09' W 006°58'0 0.0
2017-Aug-10 12:28N 52°09' W 006°58'0 0.0
2017-Aug-10 11:55N 52°09' W 006°59'0 0.4
2017-Aug-10 11:31N 52°09' W 006°58'4 8.0
2017-Aug-10 11:00N 52°05' W 006°60'5 9.5
2017-Aug-10 10:31N 52°00' W 007°01'5 9.5
2017-Aug-10 10:00N 51°56' W 007°03'5 9.4
2017-Aug-10 09:30N 51°51' W 007°04'10 9.3
2017-Aug-10 08:28N 51°42' W 007°07'6 9.3
2017-Aug-10 07:50N 51°36' W 007°09'7 9.5
2017-Aug-10 07:06N 51°29' W 007°12'1 9.5
2017-Aug-10 06:57N 51°28' W 007°12'5 9.6
2017-Aug-10 06:28N 51°23' W 007°14'  
Track history (hours):
 
Tides and Currents Weather Stations Pressure Air Temp Water Temp Dewpoint Dewpoint Depression Visibility Wind Speed Wind Dir Waves Ship Positions

Betancuria

Last reported at 2017-Aug-20 01:28 UTC. Time now 2017-Aug-20 01:54 UTC.
Position N 41°14' W 010°06'.

Length 141 m; draft 4.7 m.

Type: Ship. MMSI: 224471000.

Date/timePositionNaut miles runAvg speedWind from/ knotsBaromVisibWave heightAir tempDewpointWater temp
2017-Aug-20 01:28N 41°14' W 010°06'3510.0
2017-Aug-19 22:01N 41°49' W 010°06'011.2
2017-Aug-19 21:59N 41°49' W 010°06'1010.7
2017-Aug-19 21:02N 41°59' W 010°06'710.2
2017-Aug-19 20:23N 42°06' W 010°06'1010.6
2017-Aug-19 19:27N 42°16' W 010°06'377 9.7
2017-Aug-18 04:38N 48°00' W 006°30'162 8.7
2017-Aug-17 10:00N 49°47' W 003°26'8 9.3
2017-Aug-17 09:10N 49°51' W 003°15'2 9.5
2017-Aug-17 08:56N 49°52' W 003°12'9 9.6
2017-Aug-17 07:58N 49°57' W 002°60'4 9.5
2017-Aug-17 07:30N 49°59' W 002°54'5 9.3
2017-Aug-17 07:00N 50°00' W 002°47'5 8.7
2017-Aug-17 06:28N 50°02' W 002°40'28 6.5
2017-Aug-17 02:06N 50°10' W 001°58'1 6.4
2017-Aug-17 01:56N 50°10' W 001°56'3 6.4
2017-Aug-17 01:30N 50°11' W 001°52'4 7.1
2017-Aug-17 01:00N 50°12' W 001°47'4 7.8
2017-Aug-17 00:30N 50°13' W 001°41'4 8.6
2017-Aug-17 00:00N 50°14' W 001°34'5 9.3
2017-Aug-16 23:30N 50°16' W 001°28'5 9.7
2017-Aug-16 22:59N 50°17' W 001°20'1511.2
2017-Aug-16 21:38N 50°21' W 000°57'212.1
2017-Aug-16 21:28N 50°22' W 000°54'612.1
2017-Aug-16 20:58N 50°23' W 000°45'611.7
2017-Aug-16 20:30N 50°25' W 000°37'611.4
2017-Aug-16 20:00N 50°27' W 000°28'611.1
2017-Aug-16 19:30N 50°28' W 000°20'510.7
2017-Aug-16 19:00N 50°30' W 000°12'610.3
2017-Aug-16 18:22N 50°32' W 000°02'4 9.9
2017-Aug-16 17:56N 50°33' E 000°04'4 9.5
2017-Aug-16 17:30N 50°34' E 000°11'5 9.2
2017-Aug-16 17:00N 50°35' E 000°18'4 8.8
2017-Aug-16 16:30N 50°37' E 000°24'4 8.5
2017-Aug-16 16:00N 50°38' E 000°30'4 8.4
2017-Aug-16 15:30N 50°40' E 000°37'4 8.6
2017-Aug-16 15:00N 50°42' E 000°42'4 8.8
2017-Aug-16 14:30N 50°45' E 000°48'5 9.3
2017-Aug-16 13:59N 50°48' E 000°54'1310.3
2017-Aug-16 12:41N 50°56' E 001°11'210.8
2017-Aug-16 12:28N 50°57' E 001°13'611.0
2017-Aug-16 11:58N 51°01' E 001°20'711.0
2017-Aug-16 11:19N 51°05' E 001°29'310.5
2017-Aug-16 11:00N 51°08' E 001°33'5 9.6
2017-Aug-16 10:30N 51°12' E 001°36'5 9.3
2017-Aug-16 10:00N 51°16' E 001°37'5 9.1
2017-Aug-16 09:30N 51°21' E 001°35'510.1
2017-Aug-16 09:01N 51°24' E 001°30'5 9.7
2017-Aug-16 08:29N 51°28' E 001°24'511.2
2017-Aug-16 08:00N 51°29' E 001°15'610.9
2017-Aug-16 07:30N 51°30' E 001°06'5 9.7
2017-Aug-16 07:00N 51°29' E 000°59'3 0.1
2017-Aug-14 18:47N 51°30' E 000°53'3 9.4
2017-Aug-14 18:30N 51°29' E 000°58'5 9.9
2017-Aug-14 18:00N 51°30' E 001°05'510.4
2017-Aug-14 17:30N 51°29' E 001°14'611.6
2017-Aug-14 17:00N 51°28' E 001°23'5 9.7
2017-Aug-14 16:30N 51°27' E 001°30'4 7.0
2017-Aug-14 15:58N 51°30' E 001°30'0 0.0
2017-Aug-14 15:28N 51°30' E 001°30'0 0.0
2017-Aug-14 14:58N 51°30' E 001°30'0 0.1
2017-Aug-14 14:28N 51°30' E 001°30'0 0.0
2017-Aug-14 13:55N 51°30' E 001°30'0 0.0
2017-Aug-14 13:28N 51°30' E 001°30'0 0.0
2017-Aug-14 12:58N 51°30' E 001°30'0 0.0
2017-Aug-14 12:28N 51°30' E 001°30'0 0.0
2017-Aug-14 11:58N 51°30' E 001°30'0 0.0
2017-Aug-14 11:28N 51°30' E 001°30'0 0.0
2017-Aug-14 10:58N 51°30' E 001°30'0 0.0
2017-Aug-14 10:28N 51°30' E 001°30'0 0.1
2017-Aug-14 09:58N 51°30' E 001°30'0 0.9
2017-Aug-14 09:31N 51°30' E 001°31'5 9.8
2017-Aug-14 09:00N 51°25' E 001°31'5 9.5
2017-Aug-14 08:30N 51°21' E 001°35'510.2
2017-Aug-14 08:00N 51°16' E 001°37'611.1
2017-Aug-14 07:31N 51°11' E 001°36'5 9.9
2017-Aug-14 07:00N 51°07' E 001°40'612.8
2017-Aug-14 06:30N 51°02' E 001°34'713.5
2017-Aug-14 06:00N 50°57' E 001°27'713.4
2017-Aug-14 05:30N 50°50' E 001°23'1812.7
2017-Aug-14 04:05N 50°36' E 001°07'3512.7
2017-Aug-14 01:21N 50°24' E 000°16'514.0
2017-Aug-14 01:01N 50°23' E 000°08'714.0
2017-Aug-14 00:30N 50°21' W 000°02'714.0
2017-Aug-14 00:00N 50°19' W 000°13'714.2
2017-Aug-13 23:30N 50°17' W 000°24'714.2
2017-Aug-13 23:00N 50°15' W 000°34'713.8
2017-Aug-13 22:30N 50°13' W 000°45'713.5
2017-Aug-13 22:00N 50°11' W 000°55'613.0
2017-Aug-13 21:30N 50°09' W 001°04'712.3
2017-Aug-13 20:57N 50°08' W 001°15'511.4
2017-Aug-13 20:30N 50°06' W 001°23'510.9
2017-Aug-13 20:00N 50°05' W 001°31'510.2
2017-Aug-13 19:30N 50°03' W 001°38'5 9.5
2017-Aug-13 19:00N 50°02' W 001°45'5 9.0
2017-Aug-13 18:30N 50°01' W 001°52'4 8.5
2017-Aug-13 18:00N 49°59' W 001°58'25 9.0
2017-Aug-13 15:14N 49°52' W 002°36'310.8
2017-Aug-13 14:57N 49°51' W 002°40'511.1
2017-Aug-13 14:30N 49°50' W 002°48'611.3
2017-Aug-13 13:57N 49°50' W 002°58'611.5
2017-Aug-13 13:28N 49°50' W 003°06'511.7
2017-Aug-13 13:00N 49°50' W 003°14'612.0
2017-Aug-13 12:30N 49°50' W 003°24'612.3
2017-Aug-13 12:00N 49°51' W 003°33'612.5
2017-Aug-13 11:31N 49°51' W 003°43'612.5
2017-Aug-13 11:00N 49°51' W 003°53'612.6
2017-Aug-13 10:30N 49°51' W 004°02'612.6
2017-Aug-13 10:00N 49°52' W 004°12'612.6
2017-Aug-13 09:30N 49°52' W 004°22'912.8
2017-Aug-13 08:49N 49°52' W 004°35'612.7
2017-Aug-13 08:21N 49°53' W 004°45'412.7
2017-Aug-13 08:00N 49°53' W 004°52'712.6
2017-Aug-13 07:28N 49°53' W 005°02'712.4
2017-Aug-13 06:54N 49°53' W 005°13'47 8.5
2017-Aug-13 01:26N 50°26' W 006°05'612.3
2017-Aug-13 00:58N 50°31' W 006°08'612.2
2017-Aug-13 00:30N 50°37' W 006°10'612.1
2017-Aug-13 00:00N 50°42' W 006°14'612.0
2017-Aug-12 23:29N 50°48' W 006°17'812.0
2017-Aug-12 22:50N 50°56' W 006°21'411.8
2017-Aug-12 22:30N 50°60' W 006°22'611.7
2017-Aug-12 22:01N 51°05' W 006°25'611.6
2017-Aug-12 21:30N 51°11' W 006°29'611.1
2017-Aug-12 21:00N 51°16' W 006°30'611.7
2017-Aug-12 20:30N 51°22' W 006°33'911.6
2017-Aug-12 19:45N 51°30' W 006°37'411.7
2017-Aug-12 19:23N 51°34' W 006°40'411.6
2017-Aug-12 19:00N 51°38' W 006°42'611.8
2017-Aug-12 18:30N 51°44' W 006°46'611.8
2017-Aug-12 18:00N 51°49' W 006°49'611.7
2017-Aug-12 17:30N 51°55' W 006°52'611.6
2017-Aug-12 17:00N 52°00' W 006°55'611.3
2017-Aug-12 16:30N 52°06' W 006°58'5 9.2
2017-Aug-12 16:00N 52°10' W 006°57'5 9.0
2017-Aug-12 15:29N 52°15' W 006°59'2 4.4
2017-Aug-12 14:58N 52°16' W 007°02'0 0.0
2017-Aug-12 14:25N 52°16' W 007°02'0 0.0
2017-Aug-12 13:52N 52°16' W 007°02'0 0.0
2017-Aug-12 13:22N 52°16' W 007°02'0 0.0
2017-Aug-12 12:58N 52°16' W 007°02'0 0.0
2017-Aug-12 12:28N 52°16' W 007°02'0 0.0
2017-Aug-12 11:58N 52°16' W 007°02'0 0.0
2017-Aug-12 11:28N 52°16' W 007°02'0 0.0
2017-Aug-12 10:55N 52°16' W 007°02'0 0.0
2017-Aug-12 10:28N 52°16' W 007°02'0 0.0
2017-Aug-12 09:55N 52°16' W 007°02'0 0.0
2017-Aug-12 09:28N 52°16' W 007°02'0 0.0
2017-Aug-12 08:55N 52°16' W 007°02'0 0.0
2017-Aug-12 08:28N 52°16' W 007°02'0 0.0
2017-Aug-12 07:58N 52°16' W 007°02'0 0.0
2017-Aug-12 07:28N 52°16' W 007°02'0 0.0
2017-Aug-12 06:55N 52°16' W 007°02'0 0.0
2017-Aug-12 06:28N 52°16' W 007°02'0 0.0
2017-Aug-12 05:58N 52°16' W 007°02'0 0.0
2017-Aug-12 05:22N 52°16' W 007°02'0 0.0
2017-Aug-12 04:58N 52°16' W 007°02'0 0.0
2017-Aug-12 04:28N 52°16' W 007°02'0 0.0
2017-Aug-12 03:55N 52°16' W 007°02'0 0.0
2017-Aug-12 03:28N 52°16' W 007°02'0 0.0
2017-Aug-12 02:58N 52°16' W 007°02'0 0.0
2017-Aug-12 02:25N 52°16' W 007°02'0 0.0
2017-Aug-12 01:58N 52°16' W 007°02'0 0.0
2017-Aug-12 01:25N 52°16' W 007°02'0 0.0
2017-Aug-12 00:58N 52°16' W 007°02'0 0.0
2017-Aug-12 00:28N 52°16' W 007°02'0 0.0
2017-Aug-11 23:58N 52°16' W 007°02'0 0.0
2017-Aug-11 23:25N 52°16' W 007°02'0 0.0
2017-Aug-11 22:58N 52°16' W 007°02'0 0.0
2017-Aug-11 22:25N 52°16' W 007°02'0 0.0
2017-Aug-11 21:58N 52°16' W 007°02'0 0.0
2017-Aug-11 21:28N 52°16' W 007°02'0 0.0
2017-Aug-11 20:52N 52°16' W 007°02'0 0.0
2017-Aug-11 20:28N 52°16' W 007°02'0 0.0
2017-Aug-11 19:58N 52°16' W 007°02'0 0.0
2017-Aug-11 19:28N 52°16' W 007°02'0 0.0
2017-Aug-11 18:58N 52°16' W 007°02'0 0.0
2017-Aug-11 18:28N 52°16' W 007°02'0 0.0
2017-Aug-11 17:55N 52°16' W 007°02'0 0.0
2017-Aug-11 17:25N 52°16' W 007°02'0 0.0
2017-Aug-11 16:58N 52°16' W 007°02'0 0.0
2017-Aug-11 16:25N 52°16' W 007°02'0 0.0
2017-Aug-11 15:52N 52°16' W 007°02'0 0.0
2017-Aug-11 15:28N 52°16' W 007°02'0 0.0
2017-Aug-11 14:58N 52°16' W 007°02'0 0.0
2017-Aug-11 13:58N 52°16' W 007°02'0 0.0
2017-Aug-11 13:28N 52°16' W 007°02'0 0.0
2017-Aug-11 12:55N 52°16' W 007°02'0 0.0
2017-Aug-11 12:28N 52°16' W 007°02'0 0.0
2017-Aug-11 11:58N 52°16' W 007°02'0 0.0
2017-Aug-11 11:25N 52°16' W 007°02'0 0.0
2017-Aug-11 10:58N 52°16' W 007°02'0 0.0
2017-Aug-11 10:25N 52°16' W 007°02'0 0.0
2017-Aug-11 09:58N 52°16' W 007°02'0 0.0
2017-Aug-11 09:28N 52°16' W 007°02'0 0.0
2017-Aug-11 08:58N 52°16' W 007°02'0 0.0
2017-Aug-11 08:28N 52°16' W 007°02'0 0.0
2017-Aug-11 07:55N 52°16' W 007°02'0 0.0
2017-Aug-11 07:25N 52°16' W 007°02'0 0.0
2017-Aug-11 06:58N 52°16' W 007°02'0 0.0
2017-Aug-11 06:28N 52°16' W 007°02'0 0.0
2017-Aug-11 05:58N 52°16' W 007°02'0 0.0
2017-Aug-11 05:28N 52°16' W 007°02'0 0.0
2017-Aug-11 04:58N 52°16' W 007°02'0 0.0
2017-Aug-11 04:25N 52°16' W 007°02'0 0.0
2017-Aug-11 03:55N 52°16' W 007°02'0 0.0
2017-Aug-11 03:28N 52°16' W 007°02'0 0.0
2017-Aug-11 02:52N 52°16' W 007°02'0 0.0
2017-Aug-11 02:28N 52°16' W 007°02'0 0.0
2017-Aug-11 01:58N 52°16' W 007°02'0 0.0
2017-Aug-11 01:28N 52°16' W 007°02'0 0.0
2017-Aug-11 00:55N 52°16' W 007°02'0 0.0
2017-Aug-11 00:25N 52°16' W 007°02'0 0.0
2017-Aug-10 23:52N 52°16' W 007°02'0 0.0
2017-Aug-10 23:28N 52°16' W 007°02'0 0.0
2017-Aug-10 22:55N 52°16' W 007°02'0 0.0
2017-Aug-10 22:28N 52°16' W 007°02'0 0.0
2017-Aug-10 21:58N 52°16' W 007°02'0 0.0
2017-Aug-10 21:25N 52°16' W 007°02'0 0.0
2017-Aug-10 20:49N 52°16' W 007°02'0 0.0
2017-Aug-10 20:25N 52°16' W 007°02'0 0.0
2017-Aug-10 19:58N 52°16' W 007°02'0 0.4
2017-Aug-10 19:30N 52°16' W 007°02'1 2.7
2017-Aug-10 19:00N 52°16' W 006°60'3 6.3
2017-Aug-10 18:30N 52°13' W 006°56'4 8.5
2017-Aug-10 18:00N 52°09' W 006°58'0 0.2
2017-Aug-10 17:19N 52°09' W 006°58'0 0.0
2017-Aug-10 16:58N 52°09' W 006°58'0 0.0
2017-Aug-10 16:28N 52°09' W 006°58'0 0.0
2017-Aug-10 15:55N 52°09' W 006°58'0 0.0
2017-Aug-10 15:28N 52°09' W 006°58'0 0.0
2017-Aug-10 14:58N 52°09' W 006°58'0 0.1
2017-Aug-10 14:28N 52°09' W 006°58'0 0.1
2017-Aug-10 13:58N 52°09' W 006°58'0 0.1
2017-Aug-10 13:16N 52°09' W 006°59'0 0.0
2017-Aug-10 12:58N 52°09' W 006°58'0 0.0
2017-Aug-10 12:28N 52°09' W 006°58'0 0.0
2017-Aug-10 11:55N 52°09' W 006°59'0 0.4
2017-Aug-10 11:31N 52°09' W 006°58'4 8.0
2017-Aug-10 11:00N 52°05' W 006°60'5 9.5
2017-Aug-10 10:31N 52°00' W 007°01'5 9.5
2017-Aug-10 10:00N 51°56' W 007°03'5 9.4
2017-Aug-10 09:30N 51°51' W 007°04'10 9.3
2017-Aug-10 08:28N 51°42' W 007°07'6 9.3
2017-Aug-10 07:50N 51°36' W 007°09'7 9.5
2017-Aug-10 07:06N 51°29' W 007°12'1 9.5
2017-Aug-10 06:57N 51°28' W 007°12'5 9.6
2017-Aug-10 06:28N 51°23' W 007°14'  

Dump ship's entire track history